sensor_id;sensor_type;location;lat;lon;timestamp;P1;P2;P0
80420;PMS5003;69762;54.858;73.420;2023-06-14T00:00:59;16.00;12.50;8.00
80420;PMS5003;69762;54.858;73.420;2023-06-14T00:03:25;14.50;13.00;8.75
80420;PMS5003;69762;54.858;73.420;2023-06-14T00:05:51;13.75;11.00;7.75
80420;PMS5003;69762;54.858;73.420;2023-06-14T00:08:17;11.00;10.00;7.00
80420;PMS5003;69762;54.858;73.420;2023-06-14T00:10:44;12.00;11.00;7.00
80420;PMS5003;69762;54.858;73.420;2023-06-14T00:13:12;10.25;9.50;6.00
80420;PMS5003;69762;54.858;73.420;2023-06-14T00:15:38;10.00;9.00;6.00
80420;PMS5003;69762;54.858;73.420;2023-06-14T00:18:04;11.00;9.00;6.00
80420;PMS5003;69762;54.858;73.420;2023-06-14T00:20:31;13.00;10.00;7.00
80420;PMS5003;69762;54.858;73.420;2023-06-14T00:22:58;12.75;10.00;6.00
80420;PMS5003;69762;54.858;73.420;2023-06-14T00:25:25;10.00;8.00;5.25
80420;PMS5003;69762;54.858;73.420;2023-06-14T00:27:52;10.00;9.00;6.00
80420;PMS5003;69762;54.858;73.420;2023-06-14T00:30:20;9.25;8.00;6.00
80420;PMS5003;69762;54.858;73.420;2023-06-14T00:32:47;10.00;8.00;5.00
80420;PMS5003;69762;54.858;73.420;2023-06-14T00:35:14;9.00;7.00;5.00
80420;PMS5003;69762;54.858;73.420;2023-06-14T00:37:51;11.00;9.00;5.00
80420;PMS5003;69762;54.858;73.420;2023-06-14T00:40:17;8.25;8.00;5.00
80420;PMS5003;69762;54.858;73.420;2023-06-14T00:42:44;11.00;8.00;5.00
80420;PMS5003;69762;54.858;73.420;2023-06-14T00:45:12;11.00;10.00;7.00
80420;PMS5003;69762;54.858;73.420;2023-06-14T00:47:38;11.00;9.00;6.00
80420;PMS5003;69762;54.858;73.420;2023-06-14T00:50:07;11.00;9.25;6.00
80420;PMS5003;69762;54.858;73.420;2023-06-14T00:52:34;9.75;8.75;5.50
80420;PMS5003;69762;54.858;73.420;2023-06-14T00:55:00;12.00;10.00;6.00
80420;PMS5003;69762;54.858;73.420;2023-06-14T00:57:29;8.75;7.75;5.00
80420;PMS5003;69762;54.858;73.420;2023-06-14T00:59:55;11.00;9.00;6.00
80420;PMS5003;69762;54.858;73.420;2023-06-14T01:02:21;8.00;6.00;4.50
80420;PMS5003;69762;54.858;73.420;2023-06-14T01:04:48;6.75;5.75;4.25
80420;PMS5003;69762;54.858;73.420;2023-06-14T01:12:57;11.00;9.50;7.00
80420;PMS5003;69762;54.858;73.420;2023-06-14T01:15:24;10.00;8.00;6.00
80420;PMS5003;69762;54.858;73.420;2023-06-14T01:17:50;8.75;7.00;5.00
80420;PMS5003;69762;54.858;73.420;2023-06-14T01:20:20;11.00;9.00;6.00
80420;PMS5003;69762;54.858;73.420;2023-06-14T01:22:50;9.75;8.00;5.50
80420;PMS5003;69762;54.858;73.420;2023-06-14T01:25:17;10.00;8.00;4.75
80420;PMS5003;69762;54.858;73.420;2023-06-14T01:27:47;8.75;7.00;4.50
80420;PMS5003;69762;54.858;73.420;2023-06-14T01:30:14;10.50;8.00;5.00
80420;PMS5003;69762;54.858;73.420;2023-06-14T01:32:40;10.00;8.00;5.00
80420;PMS5003;69762;54.858;73.420;2023-06-14T01:35:07;10.00;8.00;6.00
80420;PMS5003;69762;54.858;73.420;2023-06-14T01:37:33;11.00;10.00;7.00
80420;PMS5003;69762;54.858;73.420;2023-06-14T01:40:01;9.50;7.00;4.75
80420;PMS5003;69762;54.858;73.420;2023-06-14T01:42:27;8.00;7.00;5.00
80420;PMS5003;69762;54.858;73.420;2023-06-14T01:44:53;10.00;8.00;5.00
80420;PMS5003;69762;54.858;73.420;2023-06-14T01:47:20;7.00;6.00;3.00
80420;PMS5003;69762;54.858;73.420;2023-06-14T01:49:48;9.00;7.00;4.00
80420;PMS5003;69762;54.858;73.420;2023-06-14T01:52:15;9.00;7.00;5.00
80420;PMS5003;69762;54.858;73.420;2023-06-14T01:54:42;6.00;5.00;4.00
80420;PMS5003;69762;54.858;73.420;2023-06-14T01:57:09;7.00;6.00;4.00
80420;PMS5003;69762;54.858;73.420;2023-06-14T01:59:37;7.00;6.00;4.00
80420;PMS5003;69762;54.858;73.420;2023-06-14T02:02:03;8.00;7.00;5.00
80420;PMS5003;69762;54.858;73.420;2023-06-14T02:04:31;7.00;7.00;5.00
80420;PMS5003;69762;54.858;73.420;2023-06-14T02:06:57;6.00;5.00;3.25
80420;PMS5003;69762;54.858;73.420;2023-06-14T02:09:23;6.00;5.25;4.00
80420;PMS5003;69762;54.858;73.420;2023-06-14T02:11:49;8.00;6.00;4.00
80420;PMS5003;69762;54.858;73.420;2023-06-14T02:14:16;6.75;5.00;4.00
80420;PMS5003;69762;54.858;73.420;2023-06-14T02:16:43;8.00;6.00;3.00
80420;PMS5003;69762;54.858;73.420;2023-06-14T02:19:15;6.00;5.00;3.00
80420;PMS5003;69762;54.858;73.420;2023-06-14T02:21:42;6.00;6.00;4.00
80420;PMS5003;69762;54.858;73.420;2023-06-14T02:24:08;8.00;7.00;5.00
80420;PMS5003;69762;54.858;73.420;2023-06-14T02:26:34;6.00;5.50;4.00
80420;PMS5003;69762;54.858;73.420;2023-06-14T02:29:00;6.00;6.00;4.00
80420;PMS5003;69762;54.858;73.420;2023-06-14T02:31:27;5.75;5.25;4.00
80420;PMS5003;69762;54.858;73.420;2023-06-14T02:33:53;7.00;6.25;5.00
80420;PMS5003;69762;54.858;73.420;2023-06-14T02:36:19;6.00;5.25;4.00
80420;PMS5003;69762;54.858;73.420;2023-06-14T02:38:46;6.75;5.50;4.00
80420;PMS5003;69762;54.858;73.420;2023-06-14T02:41:12;6.50;6.00;4.00
80420;PMS5003;69762;54.858;73.420;2023-06-14T02:43:38;6.00;5.00;4.00
80420;PMS5003;69762;54.858;73.420;2023-06-14T02:46:06;6.00;6.00;4.00
80420;PMS5003;69762;54.858;73.420;2023-06-14T02:48:32;4.50;4.00;3.00
80420;PMS5003;69762;54.858;73.420;2023-06-14T02:50:59;6.00;5.00;4.00
80420;PMS5003;69762;54.858;73.420;2023-06-14T02:53:25;7.00;6.00;4.00
80420;PMS5003;69762;54.858;73.420;2023-06-14T02:55:51;6.00;5.50;4.00
80420;PMS5003;69762;54.858;73.420;2023-06-14T02:58:17;6.00;6.00;4.00
80420;PMS5003;69762;54.858;73.420;2023-06-14T03:00:46;7.00;5.75;4.00
80420;PMS5003;69762;54.858;73.420;2023-06-14T03:03:12;8.00;7.00;4.50
80420;PMS5003;69762;54.858;73.420;2023-06-14T03:05:48;8.00;7.00;4.00
80420;PMS5003;69762;54.858;73.420;2023-06-14T03:08:18;8.00;7.00;4.00
80420;PMS5003;69762;54.858;73.420;2023-06-14T03:10:47;5.00;5.00;4.00
80420;PMS5003;69762;54.858;73.420;2023-06-14T03:13:13;7.00;6.00;5.00
80420;PMS5003;69762;54.858;73.420;2023-06-14T03:15:39;8.00;7.00;4.00
80420;PMS5003;69762;54.858;73.420;2023-06-14T03:18:11;6.00;5.00;4.00
80420;PMS5003;69762;54.858;73.420;2023-06-14T03:20:38;8.00;7.00;4.00
80420;PMS5003;69762;54.858;73.420;2023-06-14T03:23:05;5.25;5.00;4.00
80420;PMS5003;69762;54.858;73.420;2023-06-14T03:25:33;8.00;7.00;5.00
80420;PMS5003;69762;54.858;73.420;2023-06-14T03:28:01;8.00;6.00;4.00
80420;PMS5003;69762;54.858;73.420;2023-06-14T03:30:29;7.00;6.75;4.00
80420;PMS5003;69762;54.858;73.420;2023-06-14T03:32:56;8.25;8.00;6.00
80420;PMS5003;69762;54.858;73.420;2023-06-14T03:35:23;7.25;7.00;6.00
80420;PMS5003;69762;54.858;73.420;2023-06-14T03:37:50;7.00;6.00;4.50
80420;PMS5003;69762;54.858;73.420;2023-06-14T03:40:17;8.50;7.00;5.00
80420;PMS5003;69762;54.858;73.420;2023-06-14T03:42:47;9.00;8.00;5.00
80420;PMS5003;69762;54.858;73.420;2023-06-14T03:45:13;7.00;6.00;4.00
80420;PMS5003;69762;54.858;73.420;2023-06-14T03:47:40;6.75;6.00;4.25
80420;PMS5003;69762;54.858;73.420;2023-06-14T03:50:06;5.00;4.00;3.00
80420;PMS5003;69762;54.858;73.420;2023-06-14T03:52:33;7.00;6.00;3.75
80420;PMS5003;69762;54.858;73.420;2023-06-14T03:55:00;6.00;5.25;4.00
80420;PMS5003;69762;54.858;73.420;2023-06-14T03:57:27;5.75;5.00;4.00
80420;PMS5003;69762;54.858;73.420;2023-06-14T03:59:55;6.00;5.00;4.00
80420;PMS5003;69762;54.858;73.420;2023-06-14T04:02:22;7.00;6.00;4.00
80420;PMS5003;69762;54.858;73.420;2023-06-14T04:04:48;8.00;8.00;5.00
80420;PMS5003;69762;54.858;73.420;2023-06-14T04:07:15;6.00;5.25;4.00
80420;PMS5003;69762;54.858;73.420;2023-06-14T04:09:46;7.00;6.00;5.00
80420;PMS5003;69762;54.858;73.420;2023-06-14T04:12:12;7.50;7.00;5.00
80420;PMS5003;69762;54.858;73.420;2023-06-14T04:14:41;6.50;6.00;4.00
80420;PMS5003;69762;54.858;73.420;2023-06-14T04:17:10;7.75;7.00;4.25
80420;PMS5003;69762;54.858;73.420;2023-06-14T04:19:37;8.00;7.00;4.25
80420;PMS5003;69762;54.858;73.420;2023-06-14T04:22:03;7.00;6.00;3.50
80420;PMS5003;69762;54.858;73.420;2023-06-14T04:24:33;7.00;6.00;4.00
80420;PMS5003;69762;54.858;73.420;2023-06-14T04:27:01;8.00;7.00;5.00
80420;PMS5003;69762;54.858;73.420;2023-06-14T04:29:29;7.00;5.75;4.00
80420;PMS5003;69762;54.858;73.420;2023-06-14T04:32:01;7.25;7.00;4.00
80420;PMS5003;69762;54.858;73.420;2023-06-14T04:34:28;8.00;7.00;4.00
80420;PMS5003;69762;54.858;73.420;2023-06-14T04:37:01;8.00;6.00;5.00
80420;PMS5003;69762;54.858;73.420;2023-06-14T04:39:38;8.00;7.00;5.00
80420;PMS5003;69762;54.858;73.420;2023-06-14T04:42:04;8.00;7.00;5.00
80420;PMS5003;69762;54.858;73.420;2023-06-14T04:44:33;9.00;8.00;5.25
80420;PMS5003;69762;54.858;73.420;2023-06-14T04:47:02;6.75;6.00;4.00
80420;PMS5003;69762;54.858;73.420;2023-06-14T04:49:30;9.00;8.00;5.00
80420;PMS5003;69762;54.858;73.420;2023-06-14T04:51:58;7.00;6.00;4.00
80420;PMS5003;69762;54.858;73.420;2023-06-14T04:54:28;5.00;5.00;3.50
80420;PMS5003;69762;54.858;73.420;2023-06-14T04:56:58;6.00;5.00;4.00
80420;PMS5003;69762;54.858;73.420;2023-06-14T04:59:26;8.00;7.00;4.00
80420;PMS5003;69762;54.858;73.420;2023-06-14T05:01:52;5.50;5.00;4.00
80420;PMS5003;69762;54.858;73.420;2023-06-14T05:04:19;6.00;6.00;3.75
80420;PMS5003;69762;54.858;73.420;2023-06-14T05:06:47;8.00;7.00;4.00
80420;PMS5003;69762;54.858;73.420;2023-06-14T05:09:17;7.00;6.00;4.00
80420;PMS5003;69762;54.858;73.420;2023-06-14T05:11:44;6.00;5.00;3.00
80420;PMS5003;69762;54.858;73.420;2023-06-14T05:14:11;7.00;5.00;4.00
80420;PMS5003;69762;54.858;73.420;2023-06-14T05:16:38;6.00;6.00;4.00
80420;PMS5003;69762;54.858;73.420;2023-06-14T05:19:05;7.00;6.00;4.00
80420;PMS5003;69762;54.858;73.420;2023-06-14T05:21:31;6.00;6.00;4.00
80420;PMS5003;69762;54.858;73.420;2023-06-14T05:23:59;6.00;5.00;4.00
80420;PMS5003;69762;54.858;73.420;2023-06-14T05:26:25;7.00;6.25;4.00
80420;PMS5003;69762;54.858;73.420;2023-06-14T05:28:54;5.00;5.00;4.00
80420;PMS5003;69762;54.858;73.420;2023-06-14T05:31:23;5.00;5.00;3.00
80420;PMS5003;69762;54.858;73.420;2023-06-14T05:33:49;7.00;6.00;4.00
80420;PMS5003;69762;54.858;73.420;2023-06-14T05:36:19;5.50;5.00;4.00
80420;PMS5003;69762;54.858;73.420;2023-06-14T05:38:50;6.00;6.00;3.50
80420;PMS5003;69762;54.858;73.420;2023-06-14T05:41:26;7.00;6.00;5.00
80420;PMS5003;69762;54.858;73.420;2023-06-14T05:43:53;8.00;6.00;4.00
80420;PMS5003;69762;54.858;73.420;2023-06-14T05:46:20;7.00;6.00;4.00
80420;PMS5003;69762;54.858;73.420;2023-06-14T05:48:48;6.00;6.00;4.00
80420;PMS5003;69762;54.858;73.420;2023-06-14T05:51:14;7.50;7.00;5.00
80420;PMS5003;69762;54.858;73.420;2023-06-14T05:53:53;5.00;4.00;3.00
80420;PMS5003;69762;54.858;73.420;2023-06-14T05:56:20;7.00;6.25;4.00
80420;PMS5003;69762;54.858;73.420;2023-06-14T05:58:46;7.00;6.00;4.00
80420;PMS5003;69762;54.858;73.420;2023-06-14T06:01:12;6.00;5.00;4.00
80420;PMS5003;69762;54.858;73.420;2023-06-14T06:03:39;6.00;6.00;4.00
80420;PMS5003;69762;54.858;73.420;2023-06-14T06:06:05;7.00;6.00;4.00
80420;PMS5003;69762;54.858;73.420;2023-06-14T06:08:31;6.25;6.00;4.00
80420;PMS5003;69762;54.858;73.420;2023-06-14T06:10:59;6.50;6.00;4.00
80420;PMS5003;69762;54.858;73.420;2023-06-14T06:13:27;7.00;6.00;4.00
80420;PMS5003;69762;54.858;73.420;2023-06-14T06:15:53;6.25;5.75;4.00
80420;PMS5003;69762;54.858;73.420;2023-06-14T06:18:19;6.00;5.00;3.50
80420;PMS5003;69762;54.858;73.420;2023-06-14T06:20:45;5.50;5.00;3.25
80420;PMS5003;69762;54.858;73.420;2023-06-14T06:23:12;6.00;5.00;4.00
80420;PMS5003;69762;54.858;73.420;2023-06-14T06:25:38;8.00;7.00;4.00
80420;PMS5003;69762;54.858;73.420;2023-06-14T06:28:05;5.00;5.00;4.00
80420;PMS5003;69762;54.858;73.420;2023-06-14T06:30:31;6.00;5.00;3.00
80420;PMS5003;69762;54.858;73.420;2023-06-14T06:32:57;5.00;4.75;3.00
80420;PMS5003;69762;54.858;73.420;2023-06-14T06:35:23;7.00;6.00;5.00
80420;PMS5003;69762;54.858;73.420;2023-06-14T06:37:50;7.00;5.00;4.00
80420;PMS5003;69762;54.858;73.420;2023-06-14T06:40:16;5.00;5.00;4.00
80420;PMS5003;69762;54.858;73.420;2023-06-14T06:42:43;5.50;4.50;2.75
80420;PMS5003;69762;54.858;73.420;2023-06-14T06:45:12;7.00;6.00;3.00
80420;PMS5003;69762;54.858;73.420;2023-06-14T06:47:38;6.00;5.00;4.00
80420;PMS5003;69762;54.858;73.420;2023-06-14T06:50:04;6.00;6.00;4.00
80420;PMS5003;69762;54.858;73.420;2023-06-14T06:52:32;6.00;5.00;4.00
80420;PMS5003;69762;54.858;73.420;2023-06-14T06:54:58;6.00;5.00;4.00
80420;PMS5003;69762;54.858;73.420;2023-06-14T06:57:24;5.25;5.00;3.00
80420;PMS5003;69762;54.858;73.420;2023-06-14T06:59:50;5.00;5.00;3.00
80420;PMS5003;69762;54.858;73.420;2023-06-14T07:02:18;5.00;5.00;3.00
80420;PMS5003;69762;54.858;73.420;2023-06-14T07:04:44;6.00;5.00;3.50
80420;PMS5003;69762;54.858;73.420;2023-06-14T07:07:10;7.00;5.00;4.00
80420;PMS5003;69762;54.858;73.420;2023-06-14T07:09:37;6.00;5.00;3.00
80420;PMS5003;69762;54.858;73.420;2023-06-14T07:12:03;6.00;5.00;4.00
80420;PMS5003;69762;54.858;73.420;2023-06-14T07:14:29;7.25;6.25;5.00
80420;PMS5003;69762;54.858;73.420;2023-06-14T07:16:56;5.00;5.00;3.00
80420;PMS5003;69762;54.858;73.420;2023-06-14T07:19:22;7.00;6.00;3.75
80420;PMS5003;69762;54.858;73.420;2023-06-14T07:21:48;7.00;5.00;4.00
80420;PMS5003;69762;54.858;73.420;2023-06-14T07:24:14;5.00;5.00;3.00
80420;PMS5003;69762;54.858;73.420;2023-06-14T07:26:41;5.50;5.00;3.75
80420;PMS5003;69762;54.858;73.420;2023-06-14T07:29:07;5.00;4.25;4.00
80420;PMS5003;69762;54.858;73.420;2023-06-14T07:31:33;6.00;5.00;3.25
80420;PMS5003;69762;54.858;73.420;2023-06-14T07:33:59;5.75;5.00;3.25
80420;PMS5003;69762;54.858;73.420;2023-06-14T07:36:25;7.00;6.00;4.00
80420;PMS5003;69762;54.858;73.420;2023-06-14T07:38:51;5.00;4.00;3.00
80420;PMS5003;69762;54.858;73.420;2023-06-14T07:41:18;6.00;5.00;4.00
80420;PMS5003;69762;54.858;73.420;2023-06-14T07:43:44;6.25;6.00;4.00
80420;PMS5003;69762;54.858;73.420;2023-06-14T07:46:11;5.75;5.00;3.00
80420;PMS5003;69762;54.858;73.420;2023-06-14T07:48:38;6.00;5.00;3.75
80420;PMS5003;69762;54.858;73.420;2023-06-14T07:51:04;6.00;5.00;4.00
80420;PMS5003;69762;54.858;73.420;2023-06-14T07:53:32;5.00;4.25;3.00
80420;PMS5003;69762;54.858;73.420;2023-06-14T07:55:58;5.00;5.00;3.00
80420;PMS5003;69762;54.858;73.420;2023-06-14T07:58:24;7.00;5.00;4.00
80420;PMS5003;69762;54.858;73.420;2023-06-14T08:00:50;7.00;6.00;4.00
80420;PMS5003;69762;54.858;73.420;2023-06-14T08:03:16;6.00;5.00;4.00
80420;PMS5003;69762;54.858;73.420;2023-06-14T08:05:44;5.25;5.00;4.00
80420;PMS5003;69762;54.858;73.420;2023-06-14T08:08:10;7.00;6.00;4.00
80420;PMS5003;69762;54.858;73.420;2023-06-14T08:10:36;6.00;5.00;3.75
80420;PMS5003;69762;54.858;73.420;2023-06-14T08:13:02;7.00;6.00;4.00
80420;PMS5003;69762;54.858;73.420;2023-06-14T08:15:28;5.00;5.00;3.50
80420;PMS5003;69762;54.858;73.420;2023-06-14T08:17:54;6.25;5.75;4.00
80420;PMS5003;69762;54.858;73.420;2023-06-14T08:20:21;7.00;6.25;4.00
80420;PMS5003;69762;54.858;73.420;2023-06-14T08:22:47;7.00;6.00;4.00
80420;PMS5003;69762;54.858;73.420;2023-06-14T08:25:13;5.00;5.00;3.00
80420;PMS5003;69762;54.858;73.420;2023-06-14T08:27:40;6.00;5.00;4.00
80420;PMS5003;69762;54.858;73.420;2023-06-14T08:30:07;5.00;5.00;3.00
80420;PMS5003;69762;54.858;73.420;2023-06-14T08:32:34;6.00;5.00;3.00
80420;PMS5003;69762;54.858;73.420;2023-06-14T08:35:00;7.00;6.00;4.00
80420;PMS5003;69762;54.858;73.420;2023-06-14T08:37:29;5.00;5.00;4.00
80420;PMS5003;69762;54.858;73.420;2023-06-14T08:39:56;5.00;5.00;3.00
80420;PMS5003;69762;54.858;73.420;2023-06-14T08:42:24;4.00;4.00;3.00
80420;PMS5003;69762;54.858;73.420;2023-06-14T08:44:50;5.50;5.00;3.50
80420;PMS5003;69762;54.858;73.420;2023-06-14T08:47:16;6.00;5.00;4.00
80420;PMS5003;69762;54.858;73.420;2023-06-14T08:49:45;6.00;5.50;4.00
80420;PMS5003;69762;54.858;73.420;2023-06-14T08:52:12;6.00;5.00;3.00
80420;PMS5003;69762;54.858;73.420;2023-06-14T08:54:39;5.00;5.00;3.00
80420;PMS5003;69762;54.858;73.420;2023-06-14T08:57:12;7.00;6.00;3.00
80420;PMS5003;69762;54.858;73.420;2023-06-14T08:59:47;5.00;4.50;3.00
80420;PMS5003;69762;54.858;73.420;2023-06-14T09:02:18;5.00;5.00;3.00
80420;PMS5003;69762;54.858;73.420;2023-06-14T09:04:45;6.00;6.00;4.00
80420;PMS5003;69762;54.858;73.420;2023-06-14T09:07:11;5.00;5.00;4.00
80420;PMS5003;69762;54.858;73.420;2023-06-14T09:09:38;5.00;5.00;3.75
80420;PMS5003;69762;54.858;73.420;2023-06-14T09:12:06;5.25;4.75;3.00
80420;PMS5003;69762;54.858;73.420;2023-06-14T09:14:33;5.00;5.00;3.00
80420;PMS5003;69762;54.858;73.420;2023-06-14T09:17:04;5.00;4.75;3.75
80420;PMS5003;69762;54.858;73.420;2023-06-14T09:19:30;6.00;5.25;4.00
80420;PMS5003;69762;54.858;73.420;2023-06-14T09:21:57;5.50;4.00;3.25
80420;PMS5003;69762;54.858;73.420;2023-06-14T09:24:24;7.25;7.00;5.00
80420;PMS5003;69762;54.858;73.420;2023-06-14T09:26:53;6.00;5.00;4.00
80420;PMS5003;69762;54.858;73.420;2023-06-14T09:29:19;6.00;5.00;4.00
80420;PMS5003;69762;54.858;73.420;2023-06-14T09:31:46;5.75;5.00;3.00
80420;PMS5003;69762;54.858;73.420;2023-06-14T09:34:13;4.75;4.50;3.00
80420;PMS5003;69762;54.858;73.420;2023-06-14T09:36:40;5.00;5.00;4.00
80420;PMS5003;69762;54.858;73.420;2023-06-14T09:39:10;5.00;4.00;3.00
80420;PMS5003;69762;54.858;73.420;2023-06-14T09:41:37;6.00;5.00;4.00
80420;PMS5003;69762;54.858;73.420;2023-06-14T09:44:07;5.00;5.00;3.00
80420;PMS5003;69762;54.858;73.420;2023-06-14T09:46:37;4.00;4.00;3.00
80420;PMS5003;69762;54.858;73.420;2023-06-14T09:49:03;5.00;5.00;4.00
80420;PMS5003;69762;54.858;73.420;2023-06-14T09:51:30;6.00;6.00;4.00
80420;PMS5003;69762;54.858;73.420;2023-06-14T09:53:59;5.00;5.00;3.00
80420;PMS5003;69762;54.858;73.420;2023-06-14T09:56:27;6.00;5.50;3.50
80420;PMS5003;69762;54.858;73.420;2023-06-14T09:58:55;6.00;5.00;4.00
80420;PMS5003;69762;54.858;73.420;2023-06-14T10:01:26;5.00;4.75;3.00
80420;PMS5003;69762;54.858;73.420;2023-06-14T10:04:06;5.00;5.00;3.00
80420;PMS5003;69762;54.858;73.420;2023-06-14T10:06:36;5.00;4.00;3.00
80420;PMS5003;69762;54.858;73.420;2023-06-14T10:09:03;4.75;4.00;3.00
80420;PMS5003;69762;54.858;73.420;2023-06-14T10:11:30;5.50;5.00;3.00
80420;PMS5003;69762;54.858;73.420;2023-06-14T10:13:57;5.00;4.50;3.00
80420;PMS5003;69762;54.858;73.420;2023-06-14T10:16:27;5.00;5.00;3.00
80420;PMS5003;69762;54.858;73.420;2023-06-14T10:19:06;5.25;4.00;3.00
80420;PMS5003;69762;54.858;73.420;2023-06-14T10:24:01;5.00;5.00;3.00
80420;PMS5003;69762;54.858;73.420;2023-06-14T10:26:29;5.00;5.00;4.00
80420;PMS5003;69762;54.858;73.420;2023-06-14T10:28:59;5.75;5.00;3.00
80420;PMS5003;69762;54.858;73.420;2023-06-14T10:31:48;5.00;5.00;3.00
80420;PMS5003;69762;54.858;73.420;2023-06-14T10:37:05;5.50;5.00;4.00
80420;PMS5003;69762;54.858;73.420;2023-06-14T10:39:38;5.00;5.00;3.00
80420;PMS5003;69762;54.858;73.420;2023-06-14T10:42:04;5.00;5.00;4.00
80420;PMS5003;69762;54.858;73.420;2023-06-14T10:44:52;5.00;5.00;4.00
80420;PMS5003;69762;54.858;73.420;2023-06-14T10:47:22;5.00;5.00;3.25
80420;PMS5003;69762;54.858;73.420;2023-06-14T10:49:51;5.00;4.00;3.00
80420;PMS5003;69762;54.858;73.420;2023-06-14T10:52:20;6.00;5.50;4.00
80420;PMS5003;69762;54.858;73.420;2023-06-14T10:57:23;6.00;5.00;4.00
80420;PMS5003;69762;54.858;73.420;2023-06-14T10:59:49;6.00;6.00;4.00
80420;PMS5003;69762;54.858;73.420;2023-06-14T11:04:49;6.00;6.00;4.00
80420;PMS5003;69762;54.858;73.420;2023-06-14T11:12:15;6.00;6.00;4.00
80420;PMS5003;69762;54.858;73.420;2023-06-14T11:14:41;8.00;7.00;5.00
80420;PMS5003;69762;54.858;73.420;2023-06-14T11:17:07;6.00;6.00;4.00
80420;PMS5003;69762;54.858;73.420;2023-06-14T11:19:33;5.00;5.00;3.50
80420;PMS5003;69762;54.858;73.420;2023-06-14T11:22:00;6.00;6.00;3.25
80420;PMS5003;69762;54.858;73.420;2023-06-14T11:24:26;7.00;6.25;4.50
80420;PMS5003;69762;54.858;73.420;2023-06-14T11:26:53;6.00;5.00;3.00
80420;PMS5003;69762;54.858;73.420;2023-06-14T11:29:23;7.00;6.00;4.00
80420;PMS5003;69762;54.858;73.420;2023-06-14T11:31:49;6.00;5.00;4.00
80420;PMS5003;69762;54.858;73.420;2023-06-14T11:34:16;5.00;5.00;3.00
80420;PMS5003;69762;54.858;73.420;2023-06-14T11:36:43;5.00;5.00;3.75
80420;PMS5003;69762;54.858;73.420;2023-06-14T11:39:09;6.00;6.00;4.00
80420;PMS5003;69762;54.858;73.420;2023-06-14T11:41:42;5.00;5.00;4.00
80420;PMS5003;69762;54.858;73.420;2023-06-14T11:44:09;8.00;7.00;5.00
80420;PMS5003;69762;54.858;73.420;2023-06-14T11:46:35;6.00;6.00;4.25
80420;PMS5003;69762;54.858;73.420;2023-06-14T11:49:02;7.00;6.00;4.00
80420;PMS5003;69762;54.858;73.420;2023-06-14T11:51:33;6.00;5.00;4.00
80420;PMS5003;69762;54.858;73.420;2023-06-14T11:53:59;6.00;5.00;3.25
80420;PMS5003;69762;54.858;73.420;2023-06-14T11:56:28;6.00;6.00;4.00
80420;PMS5003;69762;54.858;73.420;2023-06-14T11:58:55;6.50;6.00;4.00
80420;PMS5003;69762;54.858;73.420;2023-06-14T12:01:23;7.00;7.00;5.00
80420;PMS5003;69762;54.858;73.420;2023-06-14T12:03:49;8.00;7.00;5.00
80420;PMS5003;69762;54.858;73.420;2023-06-14T12:06:19;8.00;8.00;5.00
80420;PMS5003;69762;54.858;73.420;2023-06-14T12:08:51;9.00;8.00;5.50
80420;PMS5003;69762;54.858;73.420;2023-06-14T12:11:21;7.00;6.50;4.00
80420;PMS5003;69762;54.858;73.420;2023-06-14T12:13:48;8.00;7.00;5.00
80420;PMS5003;69762;54.858;73.420;2023-06-14T12:16:14;9.50;8.00;6.00
80420;PMS5003;69762;54.858;73.420;2023-06-14T12:18:41;7.00;6.00;5.00
80420;PMS5003;69762;54.858;73.420;2023-06-14T12:21:09;7.00;7.00;5.00
80420;PMS5003;69762;54.858;73.420;2023-06-14T12:23:46;8.00;7.00;5.75
80420;PMS5003;69762;54.858;73.420;2023-06-14T12:26:14;7.75;7.00;5.00
80420;PMS5003;69762;54.858;73.420;2023-06-14T12:28:40;8.00;7.00;5.00
80420;PMS5003;69762;54.858;73.420;2023-06-14T12:31:08;8.00;7.75;6.00
80420;PMS5003;69762;54.858;73.420;2023-06-14T12:33:34;9.00;7.75;6.00
80420;PMS5003;69762;54.858;73.420;2023-06-14T12:36:02;9.00;8.00;5.00
80420;PMS5003;69762;54.858;73.420;2023-06-14T12:38:29;7.75;7.00;4.75
80420;PMS5003;69762;54.858;73.420;2023-06-14T12:40:55;7.00;7.00;6.00
80420;PMS5003;69762;54.858;73.420;2023-06-14T12:43:22;7.00;7.00;5.00
80420;PMS5003;69762;54.858;73.420;2023-06-14T12:45:48;7.00;7.00;5.00
80420;PMS5003;69762;54.858;73.420;2023-06-14T12:48:17;8.25;7.00;5.00
80420;PMS5003;69762;54.858;73.420;2023-06-14T12:50:43;13.00;12.00;9.00
80420;PMS5003;69762;54.858;73.420;2023-06-14T12:53:09;10.00;9.00;6.00
80420;PMS5003;69762;54.858;73.420;2023-06-14T12:55:35;9.00;8.00;5.00
80420;PMS5003;69762;54.858;73.420;2023-06-14T12:58:01;7.75;7.00;5.00
80420;PMS5003;69762;54.858;73.420;2023-06-14T13:00:27;7.00;7.00;5.00
80420;PMS5003;69762;54.858;73.420;2023-06-14T13:02:56;5.00;5.00;4.00
80420;PMS5003;69762;54.858;73.420;2023-06-14T13:05:22;13.50;9.25;6.00
80420;PMS5003;69762;54.858;73.420;2023-06-14T13:07:49;8.00;8.00;6.00
80420;PMS5003;69762;54.858;73.420;2023-06-14T13:10:16;6.00;6.00;4.75
80420;PMS5003;69762;54.858;73.420;2023-06-14T13:12:42;10.00;9.00;6.00
80420;PMS5003;69762;54.858;73.420;2023-06-14T13:15:08;7.00;6.75;5.00
80420;PMS5003;69762;54.858;73.420;2023-06-14T13:17:35;9.00;8.00;5.00
80420;PMS5003;69762;54.858;73.420;2023-06-14T13:20:05;9.00;7.00;6.00
80420;PMS5003;69762;54.858;73.420;2023-06-14T13:22:32;7.00;7.00;5.00
80420;PMS5003;69762;54.858;73.420;2023-06-14T13:24:59;9.00;9.00;6.00
80420;PMS5003;69762;54.858;73.420;2023-06-14T13:27:25;10.00;9.00;6.00
80420;PMS5003;69762;54.858;73.420;2023-06-14T13:29:51;7.00;7.00;5.00
80420;PMS5003;69762;54.858;73.420;2023-06-14T13:32:17;9.50;8.50;6.00
80420;PMS5003;69762;54.858;73.420;2023-06-14T13:34:43;25.25;21.50;14.00
80420;PMS5003;69762;54.858;73.420;2023-06-14T13:37:10;23.25;19.25;11.25
80420;PMS5003;69762;54.858;73.420;2023-06-14T13:39:36;17.50;16.25;10.00
80420;PMS5003;69762;54.858;73.420;2023-06-14T13:42:03;25.50;23.00;16.00
80420;PMS5003;69762;54.858;73.420;2023-06-14T13:44:30;9.00;8.00;6.00
80420;PMS5003;69762;54.858;73.420;2023-06-14T13:46:56;9.00;8.00;6.25
80420;PMS5003;69762;54.858;73.420;2023-06-14T13:49:22;13.00;11.00;7.00
80420;PMS5003;69762;54.858;73.420;2023-06-14T13:51:48;14.75;12.25;8.50
80420;PMS5003;69762;54.858;73.420;2023-06-14T13:54:18;11.00;10.00;7.00
80420;PMS5003;69762;54.858;73.420;2023-06-14T13:56:45;11.00;10.00;6.50
80420;PMS5003;69762;54.858;73.420;2023-06-14T13:59:11;7.50;7.00;5.25
80420;PMS5003;69762;54.858;73.420;2023-06-14T14:01:38;25.00;21.00;13.75
80420;PMS5003;69762;54.858;73.420;2023-06-14T14:04:04;70.00;54.00;31.25
80420;PMS5003;69762;54.858;73.420;2023-06-14T14:06:31;79.25;63.00;31.25
80420;PMS5003;69762;54.858;73.420;2023-06-14T14:08:58;90.00;72.00;38.00
80420;PMS5003;69762;54.858;73.420;2023-06-14T14:11:26;23.50;19.00;10.25
80420;PMS5003;69762;54.858;73.420;2023-06-14T14:13:53;31.50;24.75;15.50
80420;PMS5003;69762;54.858;73.420;2023-06-14T14:16:19;26.50;21.50;12.50
80420;PMS5003;69762;54.858;73.420;2023-06-14T14:18:46;16.00;15.00;9.00
80420;PMS5003;69762;54.858;73.420;2023-06-14T14:21:12;33.25;26.25;14.25
80420;PMS5003;69762;54.858;73.420;2023-06-14T14:23:41;29.00;24.00;14.00
80420;PMS5003;69762;54.858;73.420;2023-06-14T14:26:08;31.50;25.75;15.75
80420;PMS5003;69762;54.858;73.420;2023-06-14T14:28:35;25.00;21.00;12.00